7  °C
Temperature
-1  °C
  Dewpoint
57  %
   Humidity
Temp | Dewpoint | Humidity
13  km/h
Wind Speed
8  mph
Wind Speed
7  kts
Wind Speed
100°
Due East

Wind Speed
Mostly Cloudy
Conditions
Pressure 1027.92 (hPa) - 30.35 (in)
Visibility 6.2 (mi) - 10.0 (km)

Current Conditions
LTBA
Location Atatürk International 6km (3.2mi)
Metar :LTBA 170750Z 10007KT 050V140 9999 BKN033 07/M01 Q1028 NOSIG RMK RWY17L VRB03KT RWY05 08007KT RWY23 10006KT 050V120
Thu 1st January 05:00 am

Airport
  Metar Aviation API Data Provided by https://www.checkwx.com/ CSS/SVG/PHP scripts by weather34.com © 2015-2019